createdAt,value
2019-02-24T00:01:47.238Z,47.90
2019-02-24T00:04:17.641Z,48.50
2019-02-24T00:06:47.314Z,48.45
2019-02-24T00:09:16.999Z,48.52
2019-02-24T00:11:46.617Z,48.70
2019-02-24T00:14:16.461Z,48.42
2019-02-24T00:16:46.087Z,48.28
2019-02-24T00:19:15.904Z,48.46
2019-02-24T00:21:45.556Z,48.46
2019-02-24T00:24:15.174Z,48.81
2019-02-24T00:26:45.351Z,48.53
2019-02-24T00:29:15.189Z,48.73
2019-02-24T00:31:45.548Z,48.93
2019-02-24T00:34:15.204Z,48.86
2019-02-24T00:36:45.562Z,48.96
2019-02-24T00:39:15.178Z,49.00
2019-02-24T00:41:44.962Z,49.14
2019-02-24T00:44:14.617Z,49.22
2019-02-24T00:46:44.352Z,49.48
2019-02-24T00:49:14.077Z,49.67
2019-02-24T00:51:43.788Z,49.75
2019-02-24T00:54:13.669Z,49.77
2019-02-24T00:56:43.352Z,49.73
2019-02-24T00:59:13.269Z,50.04
2019-02-24T01:01:42.884Z,50.17
2019-02-24T01:04:12.502Z,50.27
2019-02-24T01:06:42.417Z,50.44
2019-02-24T01:09:12.047Z,50.46
2019-02-24T01:11:41.694Z,50.74
2019-02-24T01:14:11.617Z,50.70
2019-02-24T01:16:41.526Z,50.91
2019-02-24T01:19:11.212Z,50.98
2019-02-24T01:21:40.893Z,51.07
2019-02-24T01:24:10.510Z,50.99
2019-02-24T01:26:40.128Z,51.47
2019-02-24T01:29:09.786Z,51.40
2019-02-24T01:31:39.401Z,51.60
2019-02-24T01:34:09.480Z,51.48
2019-02-24T01:36:39.374Z,51.50
2019-02-24T01:39:08.998Z,51.32
2019-02-24T01:41:38.995Z,51.16
2019-02-24T01:44:08.699Z,51.17
2019-02-24T01:46:38.310Z,51.43
2019-02-24T01:49:08.686Z,51.48
2019-02-24T01:51:38.347Z,51.66
2019-02-24T01:54:08.123Z,51.73
2019-02-24T01:56:37.733Z,51.48
2019-02-24T01:59:07.389Z,51.54
2019-02-24T02:01:36.997Z,51.63
2019-02-24T02:04:06.600Z,51.58
2019-02-24T02:06:36.394Z,51.64
2019-02-24T02:09:06.444Z,51.64
2019-02-24T02:11:36.052Z,51.69
2019-02-24T02:14:05.827Z,51.61
2019-02-24T02:16:35.453Z,51.74
2019-02-24T02:19:05.056Z,51.96
2019-02-24T02:21:34.782Z,51.89
2019-02-24T02:24:04.460Z,52.16
2019-02-24T02:26:34.071Z,52.27
2019-02-24T02:29:03.758Z,52.07
2019-02-24T02:31:33.694Z,52.25
2019-02-24T02:34:03.307Z,52.64
2019-02-24T02:36:32.966Z,52.61
2019-02-24T02:39:02.649Z,52.54
2019-02-24T02:41:32.275Z,52.80
2019-02-24T02:44:01.927Z,52.84
2019-02-24T02:46:31.539Z,53.11
2019-02-24T02:49:01.156Z,53.09
2019-02-24T02:51:31.710Z,53.35
2019-02-24T02:54:01.322Z,53.48
2019-02-24T02:56:31.024Z,53.71
2019-02-24T02:59:00.678Z,53.53
2019-02-24T03:01:30.668Z,53.90
2019-02-24T03:04:00.278Z,53.80
2019-02-24T03:06:40.745Z,54.07
2019-02-24T03:09:11.029Z,54.03
2019-02-24T03:11:40.764Z,54.27
2019-02-24T03:14:10.412Z,54.20
2019-02-24T03:16:40.201Z,54.34
2019-02-24T03:19:10.092Z,54.36
2019-02-24T03:21:39.751Z,54.54
2019-02-24T03:24:09.548Z,54.50
2019-02-24T03:26:39.157Z,54.54
2019-02-24T03:29:08.892Z,54.78
2019-02-24T03:31:38.610Z,54.62
2019-02-24T03:34:08.220Z,54.83
2019-02-24T03:36:37.865Z,54.87
2019-02-24T03:39:07.494Z,54.95
2019-02-24T03:41:37.203Z,54.84
2019-02-24T03:44:06.963Z,55.19
2019-02-24T03:46:36.572Z,55.33
2019-02-24T03:49:06.185Z,55.58
2019-02-24T03:51:35.857Z,55.55
2019-02-24T03:54:06.334Z,55.82
2019-02-24T03:56:36.123Z,55.68
2019-02-24T03:59:14.641Z,55.54
2019-02-24T04:01:37.596Z,55.62
2019-02-24T04:04:07.287Z,55.84
2019-02-24T04:06:36.965Z,55.67
2019-02-24T04:09:06.842Z,56.18
2019-02-24T04:11:37.397Z,56.32
2019-02-24T04:14:07.417Z,56.25
2019-02-24T04:16:38.069Z,56.57
2019-02-24T04:19:08.149Z,56.40
2019-02-24T04:21:38.398Z,56.63
2019-02-24T04:24:08.146Z,56.60
2019-02-24T04:26:37.867Z,56.81
2019-02-24T04:29:07.515Z,56.72
2019-02-24T04:31:37.131Z,57.19
2019-02-24T04:34:07.412Z,57.30
2019-02-24T04:36:37.177Z,57.19
2019-02-24T04:39:06.962Z,57.44
2019-02-24T04:41:36.639Z,57.50
2019-02-24T04:44:06.317Z,57.76
2019-02-24T04:46:36.210Z,57.90
2019-02-24T04:49:05.821Z,58.11
2019-02-24T04:51:36.143Z,58.37
2019-02-24T04:54:05.925Z,58.71
2019-02-24T04:56:36.594Z,58.71
2019-02-24T04:59:06.294Z,59.19
2019-02-24T05:01:35.983Z,59.51
2019-02-24T05:04:05.866Z,59.20
2019-02-24T05:06:35.687Z,59.20
2019-02-24T05:09:05.732Z,59.53
2019-02-24T05:11:35.544Z,59.51
2019-02-24T05:14:05.192Z,59.62
2019-02-24T05:16:34.858Z,59.75
2019-02-24T05:19:04.540Z,59.78
2019-02-24T05:21:34.229Z,59.83
2019-02-24T05:24:03.841Z,59.89
2019-02-24T05:26:33.467Z,59.72
2019-02-24T05:29:03.115Z,59.75
2019-02-24T05:31:32.841Z,60.06
2019-02-24T05:34:02.809Z,60.13
2019-02-24T05:36:32.825Z,60.08
2019-02-24T05:39:02.440Z,60.18
2019-02-24T05:41:32.047Z,60.24
2019-02-24T05:44:01.717Z,60.47
2019-02-24T05:46:31.897Z,60.75
2019-02-24T05:49:01.516Z,60.96
2019-02-24T05:51:31.161Z,60.96
2019-02-24T05:54:00.773Z,61.21
2019-02-24T05:56:30.388Z,61.73
2019-02-24T05:59:00.816Z,61.18
2019-02-24T06:01:30.602Z,60.93
2019-02-24T06:04:01.513Z,61.29
2019-02-24T06:06:31.680Z,61.29
2019-02-24T06:09:01.300Z,61.30
2019-02-24T06:11:30.908Z,61.57
2019-02-24T06:14:00.551Z,61.59
2019-02-24T06:16:30.847Z,61.30
2019-02-24T06:19:00.449Z,61.19
2019-02-24T06:21:30.116Z,60.98
2019-02-24T06:23:59.805Z,60.89
2019-02-24T06:26:30.276Z,60.76
2019-02-24T06:29:00.471Z,60.74
2019-02-24T06:31:30.084Z,60.59
2019-02-24T06:33:59.688Z,60.46
2019-02-24T06:36:29.356Z,60.50
2019-02-24T06:39:00.429Z,60.29
2019-02-24T06:41:30.046Z,60.25
2019-02-24T06:43:59.726Z,60.15
2019-02-24T06:46:29.674Z,60.05
2019-02-24T06:49:00.166Z,60.03
2019-02-24T06:51:29.820Z,59.94
2019-02-24T06:53:59.919Z,59.93
2019-02-24T06:56:29.528Z,59.94
2019-02-24T06:58:59.222Z,60.14
2019-02-24T07:01:29.103Z,60.09
2019-02-24T07:03:58.905Z,60.14
2019-02-24T07:06:29.483Z,60.13
2019-02-24T07:08:59.091Z,60.11
2019-02-24T07:11:28.711Z,60.13
2019-02-24T07:13:58.483Z,60.21
2019-02-24T07:16:28.092Z,60.21
2019-02-24T07:18:57.704Z,60.42
2019-02-24T07:21:28.277Z,60.40
2019-02-24T07:23:57.888Z,60.54
2019-02-24T07:26:27.669Z,60.90
2019-02-24T07:29:00.370Z,60.82
2019-02-24T07:31:30.162Z,60.92
2019-02-24T07:33:59.774Z,60.77
2019-02-24T07:36:29.510Z,60.82
2019-02-24T07:39:00.893Z,60.69
2019-02-24T07:41:30.876Z,60.78
2019-02-24T07:44:00.520Z,60.71
2019-02-24T07:46:30.135Z,60.75
2019-02-24T07:48:59.758Z,60.59
2019-02-24T07:51:29.424Z,60.46
2019-02-24T07:53:59.214Z,60.20
2019-02-24T07:56:28.825Z,59.97
2019-02-24T07:58:58.471Z,59.85
2019-02-24T08:01:29.155Z,59.76
2019-02-24T08:04:01.035Z,59.53
2019-02-24T08:06:31.108Z,59.34
2019-02-24T08:09:00.716Z,59.05
2019-02-24T08:11:30.331Z,58.58
2019-02-24T08:13:59.991Z,58.36
2019-02-24T08:16:29.892Z,57.91
2019-02-24T08:18:59.504Z,57.49
2019-02-24T08:21:29.148Z,57.28
2019-02-24T08:23:58.769Z,57.01
2019-02-24T08:26:28.385Z,56.72
2019-02-24T08:28:58.215Z,56.43
2019-02-24T08:31:27.846Z,56.41
2019-02-24T08:33:57.464Z,56.26
2019-02-24T08:36:27.119Z,56.04
2019-02-24T08:38:56.803Z,56.00
2019-02-24T08:41:26.771Z,55.79
2019-02-24T08:43:56.613Z,55.63
2019-02-24T08:46:27.314Z,55.94
2019-02-24T08:48:57.003Z,55.63
2019-02-24T08:51:26.703Z,55.49
2019-02-24T08:53:56.757Z,55.31
2019-02-24T08:56:26.485Z,55.26
2019-02-24T08:58:56.138Z,55.32
2019-02-24T09:01:25.753Z,55.43
2019-02-24T09:03:55.379Z,55.62
2019-02-24T09:06:26.303Z,55.70
2019-02-24T09:08:55.734Z,55.46
2019-02-24T09:11:25.353Z,55.50
2019-02-24T09:13:55.177Z,55.54
2019-02-24T09:16:24.911Z,55.33
2019-02-24T09:18:54.541Z,55.55
2019-02-24T09:21:24.341Z,55.49
2019-02-24T09:23:54.123Z,55.33
2019-02-24T09:26:23.918Z,55.13
2019-02-24T09:28:53.766Z,55.08
2019-02-24T09:31:23.394Z,54.98
2019-02-24T09:33:53.094Z,54.90
2019-02-24T09:36:22.756Z,54.74
2019-02-24T09:38:52.989Z,54.66
2019-02-24T09:41:24.190Z,54.30
2019-02-24T09:43:53.866Z,54.00
2019-02-24T09:46:23.487Z,54.08
2019-02-24T09:48:53.483Z,54.31
2019-02-24T09:51:23.143Z,54.01
2019-02-24T09:53:52.878Z,53.87
2019-02-24T09:56:22.588Z,54.00
2019-02-24T09:58:52.252Z,54.06
2019-02-24T10:01:21.875Z,54.20
2019-02-24T10:03:51.499Z,53.90
2019-02-24T10:06:21.234Z,53.67
2019-02-24T10:08:50.868Z,53.75
2019-02-24T10:11:20.498Z,53.23
2019-02-24T10:13:54.489Z,52.93
2019-02-24T10:16:25.278Z,52.67
2019-02-24T10:19:01.111Z,52.35
2019-02-24T10:21:30.958Z,52.03
2019-02-24T10:24:00.639Z,51.82
2019-02-24T10:26:31.719Z,51.67
2019-02-24T10:29:04.212Z,51.25
2019-02-24T10:31:41.875Z,51.36
2019-02-24T10:34:28.436Z,51.46
2019-02-24T10:37:10.167Z,51.05
2019-02-24T10:39:51.377Z,50.52
2019-02-24T10:42:34.163Z,50.55
2019-02-24T10:45:14.909Z,50.05
2019-02-24T10:47:57.416Z,49.92
2019-02-24T10:50:28.911Z,49.72
2019-02-24T10:52:58.701Z,49.37
2019-02-24T10:55:28.319Z,49.46
2019-02-24T10:57:58.169Z,49.75
2019-02-24T11:00:27.792Z,49.08
2019-02-24T11:02:57.470Z,49.60
2019-02-24T11:05:27.131Z,49.58
2019-02-24T11:07:57.778Z,49.30
2019-02-24T11:10:28.357Z,49.45
2019-02-24T11:12:58.142Z,49.11
2019-02-24T11:15:27.831Z,48.58
2019-02-24T11:17:57.460Z,48.37
2019-02-24T11:20:27.779Z,48.70
2019-02-24T11:22:57.682Z,48.45
2019-02-24T11:25:27.305Z,48.40
2019-02-24T11:27:57.028Z,48.64
2019-02-24T11:30:26.831Z,48.36
2019-02-24T11:32:56.720Z,48.30
2019-02-24T11:35:26.410Z,47.80
2019-02-24T11:37:57.206Z,47.81
2019-02-24T11:40:26.865Z,47.56
2019-02-24T11:42:56.532Z,46.90
2019-02-24T11:45:26.396Z,45.83
2019-02-24T11:47:56.097Z,46.02
2019-02-24T11:50:26.158Z,45.00
2019-02-24T11:52:55.782Z,44.64
2019-02-24T11:55:25.408Z,44.98
2019-02-24T11:57:55.067Z,44.60
2019-02-24T12:00:24.700Z,44.14
2019-02-24T12:02:54.598Z,43.71
2019-02-24T12:05:24.263Z,43.49
2019-02-24T12:07:53.892Z,43.58
2019-02-24T12:10:23.519Z,42.39
2019-02-24T12:12:53.208Z,42.31
2019-02-24T12:15:22.832Z,41.59
2019-02-24T12:17:52.464Z,41.32
2019-02-24T12:20:22.109Z,41.60
2019-02-24T12:22:51.920Z,40.75
2019-02-24T12:25:21.721Z,40.64
2019-02-24T12:27:51.377Z,40.88
2019-02-24T12:30:21.178Z,40.65
2019-02-24T12:32:50.808Z,39.63
2019-02-24T12:35:20.500Z,40.23
2019-02-24T12:37:50.968Z,39.75
2019-02-24T12:40:20.600Z,38.93
2019-02-24T12:42:50.284Z,35.00
2019-02-24T12:45:19.946Z,31.23
2019-02-24T12:47:49.518Z,30.62
2019-02-24T12:50:19.350Z,29.43
2019-02-24T12:52:50.058Z,27.85
2019-02-24T12:55:19.979Z,26.75
2019-02-24T12:57:49.779Z,26.07
2019-02-24T13:00:25.816Z,24.74
2019-02-24T13:02:55.448Z,24.23
2019-02-24T13:05:28.262Z,23.12
2019-02-24T13:07:57.898Z,23.17
2019-02-24T13:10:27.629Z,21.83
2019-02-24T13:12:57.438Z,21.86
2019-02-24T13:15:27.863Z,21.82
2019-02-24T13:17:57.485Z,20.52
2019-02-24T13:20:27.815Z,20.63
2019-02-24T13:22:57.621Z,20.72
2019-02-24T13:25:27.623Z,20.17
2019-02-24T13:27:57.488Z,20.04
2019-02-24T13:30:27.122Z,19.75
2019-02-24T13:32:56.817Z,19.28
2019-02-24T13:35:26.654Z,18.15
2019-02-24T13:37:56.280Z,18.06
2019-02-24T13:40:25.901Z,17.70
2019-02-24T13:42:55.557Z,17.37
2019-02-24T13:45:26.886Z,17.29
2019-02-24T13:47:56.641Z,17.47
2019-02-24T13:50:26.335Z,17.04
2019-02-24T13:52:55.947Z,17.05
2019-02-24T13:55:27.245Z,16.97
2019-02-24T13:57:58.547Z,16.68
2019-02-24T14:00:28.187Z,16.72
2019-02-24T14:02:57.990Z,16.67
2019-02-24T14:05:27.757Z,16.65
2019-02-24T14:07:58.643Z,15.88
2019-02-24T14:10:28.356Z,15.86
2019-02-24T14:12:58.994Z,15.90
2019-02-24T14:15:28.977Z,15.68
2019-02-24T14:17:58.600Z,15.55
2019-02-24T14:20:29.794Z,15.52
2019-02-24T14:22:59.412Z,15.03
2019-02-24T14:25:29.042Z,14.96
2019-02-24T14:27:58.818Z,14.98
2019-02-24T14:30:29.416Z,14.81
2019-02-24T14:32:59.344Z,15.48
2019-02-24T14:35:29.008Z,16.39
2019-02-24T14:37:58.720Z,17.15
2019-02-24T14:40:28.341Z,17.94
2019-02-24T14:42:58.071Z,16.82
2019-02-24T14:45:27.695Z,15.47
2019-02-24T14:47:57.458Z,15.12
2019-02-24T14:50:27.139Z,15.05
2019-02-24T14:52:56.926Z,15.86
2019-02-24T14:55:28.869Z,16.86
2019-02-24T14:57:59.554Z,17.39
2019-02-24T15:00:29.457Z,17.39
2019-02-24T15:03:04.750Z,18.76
2019-02-24T15:05:34.652Z,19.92
2019-02-24T15:08:04.281Z,20.78
2019-02-24T15:10:34.082Z,21.38
2019-02-24T15:13:03.823Z,21.78
2019-02-24T15:15:35.651Z,22.72
2019-02-24T15:18:06.284Z,23.22
2019-02-24T15:20:35.918Z,23.76
2019-02-24T15:23:06.836Z,24.80
2019-02-24T15:25:36.948Z,24.80
2019-02-24T15:28:06.585Z,24.96
2019-02-24T15:30:37.778Z,25.24
2019-02-24T15:33:08.077Z,25.78
2019-02-24T15:35:37.812Z,26.06
2019-02-24T15:38:10.338Z,26.51
2019-02-24T15:40:40.768Z,26.67
2019-02-24T15:43:10.427Z,26.84
2019-02-24T15:45:40.130Z,27.18
2019-02-24T15:48:10.197Z,27.33
2019-02-24T15:50:39.921Z,27.60
2019-02-24T15:53:09.535Z,27.66
2019-02-24T15:55:39.212Z,27.89
2019-02-24T15:58:08.847Z,28.01
2019-02-24T16:00:38.560Z,28.20
2019-02-24T16:03:08.384Z,28.27
2019-02-24T16:05:38.018Z,28.11
2019-02-24T16:08:07.969Z,28.39
2019-02-24T16:10:37.669Z,28.53
2019-02-24T16:13:16.499Z,29.03
2019-02-24T16:15:39.059Z,29.36
2019-02-24T16:18:08.729Z,29.42
2019-02-24T16:20:39.642Z,29.73
2019-02-24T16:23:09.348Z,29.86
2019-02-24T16:25:39.186Z,30.20
2019-02-24T16:28:08.808Z,30.30
2019-02-24T16:30:38.549Z,30.33
2019-02-24T16:33:10.793Z,30.72
2019-02-24T16:35:39.544Z,30.70
2019-02-24T16:38:09.162Z,30.77
2019-02-24T16:40:39.866Z,30.97
2019-02-24T16:43:09.495Z,30.63
2019-02-24T16:45:39.402Z,30.59
2019-02-24T16:48:11.716Z,30.82
2019-02-24T16:50:40.502Z,30.42
2019-02-24T16:53:11.846Z,30.57
2019-02-24T16:55:41.642Z,30.59
2019-02-24T16:58:11.268Z,30.54
2019-02-24T17:00:41.035Z,30.61
2019-02-24T17:03:19.645Z,30.96
2019-02-24T17:05:46.174Z,30.95
2019-02-24T17:08:16.010Z,31.12
2019-02-24T17:10:45.748Z,31.23
2019-02-24T17:13:15.379Z,31.26
2019-02-24T17:15:45.117Z,31.63
2019-02-24T17:18:14.812Z,31.45
2019-02-24T17:20:44.452Z,31.82
2019-02-24T17:23:14.952Z,31.88
2019-02-24T17:25:44.652Z,31.31
2019-02-24T17:28:14.355Z,31.07
2019-02-24T17:30:44.915Z,31.02
2019-02-24T17:33:15.318Z,30.88
2019-02-24T17:35:44.948Z,30.91
2019-02-24T17:38:14.647Z,31.16
2019-02-24T17:40:44.549Z,31.28
2019-02-24T17:43:14.300Z,31.40
2019-02-24T17:45:44.926Z,31.53
2019-02-24T17:48:14.703Z,31.81
2019-02-24T17:50:44.676Z,31.89
2019-02-24T17:53:14.465Z,32.14
2019-02-24T17:55:44.296Z,32.50
2019-02-24T17:58:14.047Z,32.44
2019-02-24T18:00:51.166Z,32.89
2019-02-24T18:03:21.134Z,32.96
2019-02-24T18:05:50.937Z,33.09
2019-02-24T18:08:39.172Z,33.17
2019-02-24T18:11:08.803Z,33.44
2019-02-24T18:13:38.429Z,33.67
2019-02-24T18:16:08.091Z,34.00
2019-02-24T18:18:40.021Z,34.20
2019-02-24T18:21:14.683Z,34.18
2019-02-24T18:23:47.297Z,34.68
2019-02-24T18:26:16.995Z,34.97
2019-02-24T18:28:48.004Z,35.10
2019-02-24T18:31:17.652Z,35.29
2019-02-24T18:33:49.978Z,35.84
2019-02-24T18:36:19.876Z,35.62
2019-02-24T18:38:49.568Z,36.15
2019-02-24T18:44:18.164Z,36.18
2019-02-24T18:46:49.305Z,36.57
2019-02-24T18:49:22.878Z,36.39
2019-02-24T18:51:52.532Z,37.00
2019-02-24T18:54:22.163Z,37.40
2019-02-24T18:56:52.186Z,37.35
2019-02-24T18:59:21.932Z,38.03
2019-02-24T19:01:51.501Z,37.97
2019-02-24T19:04:21.497Z,38.63
2019-02-24T19:06:52.707Z,38.90
2019-02-24T19:09:24.087Z,39.05
2019-02-24T19:11:54.798Z,39.47
2019-02-24T19:14:25.712Z,39.80
2019-02-24T19:16:57.283Z,39.87
2019-02-24T19:19:26.987Z,40.19
2019-02-24T19:21:56.684Z,40.73
2019-02-24T19:24:26.324Z,40.76
2019-02-24T19:26:56.239Z,41.00
2019-02-24T19:29:25.976Z,41.70
2019-02-24T19:31:55.606Z,41.97
2019-02-24T19:34:25.704Z,41.87
2019-02-24T19:36:55.401Z,42.36
2019-02-24T19:39:25.054Z,42.20
2019-02-24T19:41:54.688Z,43.09
2019-02-24T19:44:24.514Z,43.28
2019-02-24T19:46:54.144Z,43.36
2019-02-24T19:49:23.768Z,44.03
2019-02-24T19:51:53.459Z,44.58
2019-02-24T19:54:23.665Z,44.54
2019-02-24T19:56:54.933Z,45.23
2019-02-24T19:59:24.767Z,46.16
2019-02-24T20:01:54.383Z,45.92
2019-02-24T20:04:24.027Z,46.48
2019-02-24T20:06:53.898Z,46.36
2019-02-24T20:09:23.696Z,47.35
2019-02-24T20:11:53.327Z,47.31
2019-02-24T20:14:31.367Z,47.54
2019-02-24T20:17:03.024Z,48.01
2019-02-24T20:19:34.391Z,48.07
2019-02-24T20:22:06.258Z,48.79
2019-02-24T20:24:37.523Z,49.40
2019-02-24T20:27:09.242Z,49.57
2019-02-24T20:29:38.972Z,50.29
2019-02-24T20:32:08.681Z,50.16
2019-02-24T20:34:40.893Z,51.67
2019-02-24T20:37:10.519Z,52.71
2019-02-24T20:39:45.502Z,52.02
2019-02-24T20:42:22.323Z,52.85
2019-02-24T20:44:53.864Z,52.91
2019-02-24T20:47:23.488Z,52.93
2019-02-24T20:49:53.435Z,53.40
2019-02-24T20:52:23.103Z,53.09
2019-02-24T20:54:53.215Z,54.31
2019-02-24T20:57:23.604Z,54.87
2019-02-24T20:59:53.271Z,54.14
2019-02-24T21:02:22.902Z,54.87
2019-02-24T21:04:52.526Z,55.67
2019-02-24T21:07:22.250Z,56.12
2019-02-24T21:09:51.889Z,56.45
2019-02-24T21:12:21.507Z,57.33
2019-02-24T21:14:51.175Z,56.71
2019-02-24T21:17:20.815Z,57.62
2019-02-24T21:19:50.431Z,57.87
2019-02-24T21:22:21.469Z,58.84
2019-02-24T21:24:51.115Z,59.09
2019-02-24T21:27:20.775Z,59.98
2019-02-24T21:29:50.431Z,59.53
2019-02-24T21:32:21.221Z,59.69
2019-02-24T21:34:50.846Z,60.39
2019-02-24T21:37:20.515Z,60.65
2019-02-24T21:39:50.232Z,61.37
2019-02-24T21:42:20.055Z,61.83
2019-02-24T21:44:49.740Z,62.59
2019-02-24T21:47:19.955Z,62.60
2019-02-24T21:49:49.582Z,63.75
2019-02-24T21:52:19.668Z,63.86
2019-02-24T21:54:49.289Z,64.20
2019-02-24T21:57:18.992Z,64.81
2019-02-24T21:59:48.923Z,64.68
2019-02-24T22:02:18.592Z,65.52
2019-02-24T22:04:48.282Z,65.01
2019-02-24T22:07:18.442Z,65.91
2019-02-24T22:09:48.281Z,66.13
2019-02-24T22:12:17.910Z,65.32
2019-02-24T22:14:47.600Z,66.63
2019-02-24T22:17:17.226Z,67.10
2019-02-24T22:19:46.846Z,66.82
2019-02-24T22:22:16.505Z,67.63
2019-02-24T22:24:46.136Z,68.78
2019-02-24T22:27:18.037Z,68.47
2019-02-24T22:29:49.945Z,68.73
2019-02-24T22:32:19.695Z,69.58
2019-02-24T22:34:50.152Z,69.80
2019-02-24T22:37:19.815Z,70.43
2019-02-24T22:39:49.547Z,70.25
2019-02-24T22:42:19.444Z,72.02
2019-02-24T22:44:49.596Z,72.60
2019-02-24T22:47:19.323Z,72.01
2019-02-24T22:49:51.420Z,72.82
2019-02-24T22:52:22.407Z,72.56
2019-02-24T22:54:52.108Z,73.34
2019-02-24T22:57:22.011Z,72.98
2019-02-24T22:59:52.165Z,74.68
2019-02-24T23:02:23.795Z,75.14
2019-02-24T23:04:55.180Z,75.72
2019-02-24T23:07:24.952Z,75.06
2019-02-24T23:09:54.834Z,74.79
2019-02-24T23:12:24.459Z,75.14
2019-02-24T23:14:54.141Z,75.20
2019-02-24T23:17:23.763Z,76.02
2019-02-24T23:19:53.483Z,76.40
2019-02-24T23:22:23.254Z,76.41
2019-02-24T23:24:53.146Z,76.94
2019-02-24T23:27:22.790Z,77.48
2019-02-24T23:29:52.458Z,77.72
2019-02-24T23:32:22.250Z,77.96
2019-02-24T23:34:51.875Z,77.19
2019-02-24T23:37:21.578Z,77.84
2019-02-24T23:39:51.175Z,77.71
2019-02-24T23:42:20.984Z,77.43
2019-02-24T23:44:50.730Z,78.11
2019-02-24T23:47:20.354Z,78.44
2019-02-24T23:49:49.976Z,79.04
2019-02-24T23:52:19.632Z,78.73
2019-02-24T23:54:49.329Z,79.56
2019-02-24T23:57:18.962Z,79.18
2019-02-24T23:59:48.638Z,79.02
